createdAt,value
2022-12-18T00:04:52.126Z,99.50
2022-12-18T00:09:59.254Z,105.90
2022-12-18T00:15:07.497Z,91.20
2022-12-18T00:20:15.261Z,138.10
2022-12-18T00:25:22.760Z,123.40
2022-12-18T00:30:30.433Z,91.70
2022-12-18T00:35:37.924Z,89.00
2022-12-18T00:40:45.057Z,100.50
2022-12-18T00:45:53.563Z,94.40
2022-12-18T00:51:00.924Z,105.10
2022-12-18T00:56:08.524Z,114.30
2022-12-18T01:01:15.671Z,121.10
2022-12-18T01:06:22.786Z,117.40
2022-12-18T01:11:30.056Z,172.90
2022-12-18T01:16:37.675Z,153.20
2022-12-18T01:21:45.361Z,147.30
2022-12-18T01:26:52.379Z,122.00
2022-12-18T01:31:59.944Z,122.80
2022-12-18T01:37:07.784Z,116.10
2022-12-18T01:47:41.447Z,112.90
2022-12-18T01:52:52.133Z,103.10
2022-12-18T01:58:02.665Z,112.40
2022-12-18T02:03:09.957Z,146.80
2022-12-18T02:08:23.142Z,138.30
2022-12-18T02:13:38.861Z,126.30
2022-12-18T02:18:50.992Z,110.60
2022-12-18T02:24:08.540Z,133.40
2022-12-18T02:29:20.242Z,120.10
2022-12-18T02:34:31.445Z,106.50
2022-12-18T02:39:40.936Z,104.10
2022-12-18T02:44:52.304Z,100.20
2022-12-18T02:50:12.378Z,119.80
2022-12-18T02:55:30.342Z,110.90
2022-12-18T03:00:46.340Z,82.40
2022-12-18T03:05:58.978Z,76.80
2022-12-18T03:11:09.894Z,80.20
2022-12-18T03:16:24.677Z,84.00
2022-12-18T03:21:36.529Z,80.50
2022-12-18T03:26:47.079Z,79.30
2022-12-18T03:32:00.762Z,76.80
2022-12-18T03:37:08.785Z,113.20
2022-12-18T03:42:28.068Z,90.30
2022-12-18T03:47:52.382Z,85.60
2022-12-18T03:53:06.374Z,71.70
2022-12-18T03:58:18.387Z,75.20
2022-12-18T04:03:36.607Z,65.20
2022-12-18T04:08:44.955Z,60.10
2022-12-18T04:13:57.414Z,58.20
2022-12-18T04:19:04.840Z,62.30
2022-12-18T04:24:17.260Z,59.20
2022-12-18T04:29:32.407Z,78.50
2022-12-18T04:34:40.072Z,78.20
2022-12-18T04:45:00.109Z,62.20
2022-12-18T04:50:08.415Z,61.70
2022-12-18T04:55:15.477Z,56.90
2022-12-18T05:00:23.164Z,62.80
2022-12-18T05:10:38.270Z,59.10
2022-12-18T05:15:53.742Z,62.90
2022-12-18T05:21:00.868Z,67.50
2022-12-18T05:26:09.530Z,77.60
2022-12-18T05:31:17.312Z,80.00
2022-12-18T05:36:24.444Z,71.70
2022-12-18T05:41:31.543Z,68.80
2022-12-18T05:46:38.672Z,71.50
2022-12-18T05:51:48.583Z,77.10
2022-12-18T05:56:55.860Z,63.10
2022-12-18T06:02:03.068Z,71.70
2022-12-18T06:07:10.172Z,67.80
2022-12-18T06:12:17.304Z,69.90
2022-12-18T06:17:24.414Z,72.00
2022-12-18T06:22:32.638Z,105.50
2022-12-18T06:27:39.896Z,110.90
2022-12-18T06:32:50.460Z,100.70
2022-12-18T06:38:00.279Z,92.10
2022-12-18T06:43:07.451Z,89.10
2022-12-18T06:48:14.517Z,86.50
2022-12-18T06:53:21.652Z,107.10
2022-12-18T06:58:29.068Z,91.50
2022-12-18T07:03:36.194Z,85.40
2022-12-18T07:08:43.394Z,97.90
2022-12-18T07:13:50.545Z,133.90
2022-12-18T07:18:58.160Z,151.00
2022-12-18T07:24:05.674Z,97.50
2022-12-18T07:29:12.754Z,78.00
2022-12-18T07:34:19.941Z,78.20
2022-12-18T07:39:27.031Z,85.80
2022-12-18T07:44:34.014Z,83.90
2022-12-18T07:49:41.076Z,96.10
2022-12-18T07:54:50.062Z,102.70
2022-12-18T07:59:57.173Z,78.20
2022-12-18T08:05:04.376Z,120.10
2022-12-18T08:10:12.394Z,124.80
2022-12-18T08:15:19.905Z,106.00
2022-12-18T08:20:27.003Z,98.50
2022-12-18T08:25:34.159Z,98.70
2022-12-18T08:30:41.445Z,96.00
2022-12-18T08:41:02.405Z,82.00
2022-12-18T08:46:10.611Z,84.00
2022-12-18T08:51:19.878Z,76.40
2022-12-18T08:56:27.011Z,127.30
2022-12-18T09:01:34.404Z,115.90
2022-12-18T09:06:42.701Z,94.90
2022-12-18T09:11:49.863Z,85.80
2022-12-18T09:22:03.333Z,90.70
2022-12-18T09:27:10.484Z,87.80
2022-12-18T09:32:22.325Z,82.40
2022-12-18T09:37:30.014Z,75.40
2022-12-18T09:42:37.275Z,77.20
2022-12-18T09:47:47.067Z,125.40
2022-12-18T09:52:58.184Z,101.30
2022-12-18T09:58:12.540Z,83.00
2022-12-18T10:03:19.966Z,65.90
2022-12-18T10:08:36.158Z,58.00
2022-12-18T10:13:50.155Z,64.10
2022-12-18T10:19:10.062Z,74.50
2022-12-18T10:24:27.221Z,64.30
2022-12-18T10:29:34.370Z,76.70
2022-12-18T10:34:44.140Z,63.60
2022-12-18T10:40:14.304Z,58.70
2022-12-18T10:45:28.943Z,82.70
2022-12-18T10:51:09.797Z,88.40
2022-12-18T10:56:08.956Z,64.20
2022-12-18T11:01:18.341Z,67.70
2022-12-18T11:06:27.220Z,66.80
2022-12-18T11:11:35.965Z,73.30
2022-12-18T11:17:23.722Z,65.80
2022-12-18T11:22:25.633Z,76.70
2022-12-18T11:27:33.835Z,70.20
2022-12-18T11:32:43.219Z,73.50
2022-12-18T11:38:00.460Z,78.30
2022-12-18T11:43:13.132Z,100.10
2022-12-18T11:48:24.456Z,88.70
2022-12-18T11:53:32.128Z,83.40
2022-12-18T12:04:08.457Z,89.10
2022-12-18T12:09:24.062Z,81.50
2022-12-18T12:14:44.800Z,129.50
2022-12-18T12:20:04.619Z,99.40
2022-12-18T12:25:30.160Z,106.30
2022-12-18T12:30:50.782Z,104.20
2022-12-18T12:36:06.466Z,114.40
2022-12-18T12:41:32.860Z,132.20
2022-12-18T12:46:44.014Z,143.90
2022-12-18T12:51:59.397Z,131.00
2022-12-18T12:57:14.953Z,119.50
2022-12-18T13:02:30.736Z,136.30
2022-12-18T13:07:42.935Z,120.90
2022-12-18T13:12:58.727Z,120.70
2022-12-18T13:18:23.755Z,111.80
2022-12-18T13:23:34.076Z,110.60
2022-12-18T13:28:58.180Z,107.80
2022-12-18T13:34:26.221Z,107.60
2022-12-18T13:39:38.002Z,161.80
2022-12-18T13:44:45.549Z,162.10
2022-12-18T13:55:00.395Z,111.20
2022-12-18T14:00:29.717Z,126.40
2022-12-18T14:05:39.963Z,117.30
2022-12-18T14:10:53.449Z,112.20
2022-12-18T14:16:03.791Z,116.90
2022-12-18T14:21:22.348Z,109.70
2022-12-18T14:26:31.974Z,133.20
2022-12-18T14:31:39.896Z,175.30
2022-12-18T14:42:01.166Z,129.90
2022-12-18T14:47:15.884Z,134.80
2022-12-18T14:52:30.102Z,128.80
2022-12-18T14:57:43.451Z,130.90
2022-12-18T15:02:54.743Z,138.90
2022-12-18T15:08:03.394Z,137.10
2022-12-18T15:13:25.640Z,163.20
2022-12-18T15:18:35.013Z,147.90
2022-12-18T15:23:51.723Z,143.20
2022-12-18T15:29:03.130Z,164.80
2022-12-18T15:34:23.732Z,207.30
2022-12-18T15:39:30.963Z,187.30
2022-12-18T15:44:38.139Z,170.90
2022-12-18T15:49:45.284Z,171.50
2022-12-18T15:55:10.088Z,173.20
2022-12-18T16:00:18.552Z,169.00
2022-12-18T16:05:25.661Z,153.10
2022-12-18T16:10:32.880Z,142.90
2022-12-18T16:15:40.238Z,149.30
2022-12-18T16:20:47.548Z,160.10
2022-12-18T16:25:54.787Z,163.70
2022-12-18T16:31:02.229Z,162.30
2022-12-18T16:41:34.154Z,177.50
2022-12-18T16:46:44.192Z,150.70
2022-12-18T16:51:52.363Z,149.50
2022-12-18T16:57:00.811Z,125.30
2022-12-18T17:02:08.603Z,152.00
2022-12-18T17:07:16.920Z,146.10
2022-12-18T17:12:25.433Z,136.00
2022-12-18T17:17:32.876Z,131.60
2022-12-18T17:27:46.952Z,147.00
2022-12-18T17:32:55.002Z,122.90
2022-12-18T17:38:02.479Z,145.70
2022-12-18T17:43:11.036Z,132.60
2022-12-18T17:48:18.843Z,148.30
2022-12-18T17:53:26.236Z,159.60
2022-12-18T17:58:34.070Z,143.20
2022-12-18T18:03:41.728Z,113.90
2022-12-18T18:08:49.878Z,135.20
2022-12-18T18:14:04.313Z,115.90
2022-12-18T18:19:14.130Z,120.80
2022-12-18T18:24:24.229Z,126.10
2022-12-18T18:29:31.961Z,131.20
2022-12-18T18:39:52.108Z,144.30
2022-12-18T18:44:59.254Z,137.60
2022-12-18T18:50:07.398Z,137.10
2022-12-18T18:55:20.993Z,144.10
2022-12-18T19:00:33.086Z,173.10
2022-12-18T19:10:59.352Z,148.10
2022-12-18T19:16:09.265Z,141.00
2022-12-18T19:21:19.708Z,154.60
2022-12-18T19:26:29.097Z,152.90
2022-12-18T19:31:42.107Z,158.40
2022-12-18T19:37:00.633Z,142.10
2022-12-18T19:42:08.170Z,176.70
2022-12-18T19:47:15.607Z,156.50
2022-12-18T19:52:25.059Z,200.80
2022-12-18T19:57:32.929Z,201.10
2022-12-18T20:02:40.167Z,208.60
2022-12-18T20:07:47.971Z,242.10
2022-12-18T20:12:55.382Z,216.70
2022-12-18T20:18:03.896Z,183.40
2022-12-18T20:23:11.313Z,192.20
2022-12-18T20:28:18.706Z,193.30
2022-12-18T20:33:25.897Z,200.90
2022-12-18T20:38:57.078Z,212.10
2022-12-18T20:44:23.574Z,206.50
2022-12-18T20:49:40.107Z,172.50
2022-12-18T20:55:06.264Z,193.90
2022-12-18T21:00:20.100Z,194.90
2022-12-18T21:05:30.147Z,190.70
2022-12-18T21:10:37.146Z,197.80
2022-12-18T21:15:45.797Z,191.30
2022-12-18T21:20:58.373Z,204.20
2022-12-18T21:26:20.853Z,190.50
2022-12-18T21:31:31.052Z,191.90
2022-12-18T21:36:38.371Z,179.00
2022-12-18T21:42:04.361Z,151.60
2022-12-18T21:47:22.387Z,151.30
2022-12-18T21:52:32.218Z,137.30
2022-12-18T21:57:41.492Z,124.10
2022-12-18T22:03:01.168Z,136.00
2022-12-18T22:08:16.720Z,142.20
2022-12-18T22:13:24.034Z,144.80
2022-12-18T22:18:31.501Z,152.20
2022-12-18T22:23:39.107Z,143.20
2022-12-18T22:29:04.152Z,153.00
2022-12-18T22:34:11.941Z,149.50
2022-12-18T22:39:21.351Z,135.10
2022-12-18T22:44:30.045Z,146.70
2022-12-18T22:49:37.626Z,134.60
2022-12-18T22:59:50.251Z,134.00
2022-12-18T23:04:57.304Z,157.30
2022-12-18T23:10:04.487Z,145.60
2022-12-18T23:15:13.597Z,143.20
2022-12-18T23:20:23.193Z,151.10
2022-12-18T23:25:30.301Z,150.40
2022-12-18T23:30:37.458Z,124.00
2022-12-18T23:35:44.560Z,148.70
2022-12-18T23:40:51.768Z,148.30
2022-12-18T23:46:03.431Z,98.50
2022-12-18T23:51:12.438Z,121.20
2022-12-18T23:56:19.566Z,118.40
